createdAt,value
2022-08-11T00:03:45.264Z,85.19
2022-08-11T00:08:51.275Z,85.66
2022-08-11T00:13:55.095Z,85.83
2022-08-11T00:18:59.983Z,86.13
2022-08-11T00:24:04.092Z,86.67
2022-08-11T00:29:12.159Z,86.82
2022-08-11T00:34:17.835Z,86.81
2022-08-11T00:39:28.576Z,86.80
2022-08-11T00:44:35.608Z,86.74
2022-08-11T00:50:03.394Z,86.82
2022-08-11T00:55:09.671Z,86.78
2022-08-11T01:00:15.350Z,86.72
2022-08-11T01:05:28.887Z,86.43
2022-08-11T01:10:50.938Z,86.43
2022-08-11T01:16:32.142Z,86.64
2022-08-11T01:22:12.925Z,86.00
2022-08-11T01:27:28.626Z,86.60
2022-08-11T01:33:20.476Z,86.06
2022-08-11T01:38:39.144Z,86.81
2022-08-11T01:44:22.811Z,87.10
2022-08-11T01:50:08.523Z,87.25
2022-08-11T01:55:28.510Z,86.66
2022-08-11T02:00:47.026Z,87.05
2022-08-11T02:05:56.636Z,87.50
2022-08-11T02:11:38.655Z,87.82
2022-08-11T02:17:11.351Z,88.07
2022-08-11T02:22:58.697Z,88.22
2022-08-11T02:28:12.407Z,88.41
2022-08-11T02:33:24.717Z,88.42
2022-08-11T02:38:54.501Z,88.72
2022-08-11T02:44:06.517Z,88.75
2022-08-11T02:49:45.360Z,88.86
2022-08-11T02:55:03.739Z,89.19
2022-08-11T03:00:14.000Z,89.57
2022-08-11T03:05:45.881Z,89.79
2022-08-11T03:11:46.639Z,89.70
2022-08-11T03:17:17.083Z,89.73
2022-08-11T03:22:23.206Z,89.70
2022-08-11T03:27:54.628Z,89.70
2022-08-11T03:33:49.652Z,90.18
2022-08-11T03:39:06.172Z,90.28
2022-08-11T03:44:33.137Z,90.24
2022-08-11T03:49:54.169Z,90.30
2022-08-11T03:55:24.201Z,90.82
2022-08-11T04:00:50.962Z,91.05
2022-08-11T04:06:28.063Z,91.27
2022-08-11T04:11:55.236Z,90.89
2022-08-11T04:17:07.352Z,89.26
2022-08-11T04:22:30.630Z,86.67
2022-08-11T04:27:59.028Z,83.76
2022-08-11T04:33:38.895Z,80.66
2022-08-11T04:39:42.346Z,71.12
2022-08-11T04:45:20.850Z,63.08
2022-08-11T04:51:28.265Z,56.94
2022-08-11T04:56:53.692Z,54.72
2022-08-11T05:02:25.684Z,52.62
2022-08-11T05:07:46.148Z,50.30
2022-08-11T05:12:55.646Z,47.80
2022-08-11T05:18:26.603Z,46.17
2022-08-11T05:23:49.376Z,44.58
2022-08-11T05:29:20.501Z,43.62
2022-08-11T05:34:50.161Z,42.57
2022-08-11T05:40:24.718Z,41.05
2022-08-11T05:46:03.522Z,40.62
2022-08-11T05:51:30.416Z,39.20
2022-08-11T05:56:41.075Z,38.40
2022-08-11T06:01:48.267Z,39.19
2022-08-11T06:06:52.942Z,37.33
2022-08-11T06:12:00.770Z,35.12
2022-08-11T06:17:06.742Z,35.11
2022-08-11T06:22:14.240Z,35.01
2022-08-11T06:27:22.668Z,33.45
2022-08-11T06:32:36.322Z,32.62
2022-08-11T06:37:45.679Z,31.91
2022-08-11T06:43:02.604Z,31.66
2022-08-11T06:48:15.590Z,31.70
2022-08-11T06:53:21.103Z,31.69
2022-08-11T06:58:47.761Z,31.72
2022-08-11T07:04:04.489Z,31.81
2022-08-11T07:09:45.995Z,31.45
2022-08-11T07:15:12.391Z,29.55
2022-08-11T07:20:36.651Z,29.16
2022-08-11T07:26:01.464Z,27.82
2022-08-11T07:31:09.065Z,27.59
2022-08-11T07:36:14.177Z,27.54
2022-08-11T07:41:20.815Z,27.22
2022-08-11T07:46:43.552Z,26.79
2022-08-11T07:52:06.755Z,25.60
2022-08-11T07:58:00.188Z,24.64
2022-08-11T08:03:12.262Z,23.73
2022-08-11T08:08:35.347Z,23.70
2022-08-11T08:13:58.201Z,23.15
2022-08-11T08:19:01.617Z,23.36
2022-08-11T08:24:07.797Z,23.43
2022-08-11T08:29:29.950Z,21.35
2022-08-11T08:34:33.987Z,21.70
2022-08-11T08:39:38.401Z,21.94
2022-08-11T08:44:45.446Z,23.06
2022-08-11T08:49:53.379Z,22.59
2022-08-11T08:55:02.577Z,23.01
2022-08-11T09:00:12.510Z,22.87
2022-08-11T09:05:19.374Z,21.05
2022-08-11T09:10:23.575Z,22.03
2022-08-11T09:15:28.660Z,23.74
2022-08-11T09:20:36.969Z,24.94
2022-08-11T09:26:01.452Z,23.77
2022-08-11T09:31:07.069Z,24.84
2022-08-11T09:36:31.217Z,24.23
2022-08-11T09:42:00.780Z,25.40
2022-08-11T09:47:00.777Z,28.06
2022-08-11T09:52:07.744Z,29.37
2022-08-11T09:57:30.027Z,30.61
2022-08-11T10:02:34.092Z,30.73
2022-08-11T10:07:38.610Z,30.83
2022-08-11T10:13:03.305Z,31.00
2022-08-11T10:18:38.264Z,32.14
2022-08-11T10:24:05.936Z,31.76
2022-08-11T10:29:36.668Z,31.36
2022-08-11T10:34:49.612Z,32.06
2022-08-11T10:39:57.866Z,31.85
2022-08-11T10:45:05.065Z,32.23
2022-08-11T10:50:32.432Z,32.76
2022-08-11T10:55:58.447Z,33.57
2022-08-11T11:01:03.959Z,33.18
2022-08-11T11:06:29.858Z,33.22
2022-08-11T11:11:58.482Z,32.96
2022-08-11T11:17:14.318Z,33.06
2022-08-11T11:22:36.746Z,33.29
2022-08-11T11:28:01.867Z,33.01
2022-08-11T11:33:19.924Z,33.34
2022-08-11T11:38:23.544Z,32.95
2022-08-11T11:43:26.857Z,32.44
2022-08-11T11:48:32.066Z,32.01
2022-08-11T11:53:36.489Z,32.16
2022-08-11T11:58:59.928Z,32.22
2022-08-11T12:04:06.835Z,31.81
2022-08-11T12:09:15.898Z,31.89
2022-08-11T12:14:21.742Z,32.10
2022-08-11T12:19:28.858Z,32.61
2022-08-11T12:24:58.275Z,32.68
2022-08-11T12:30:09.841Z,32.94
2022-08-11T12:35:16.130Z,32.70
2022-08-11T12:41:03.579Z,32.46
2022-08-11T12:46:15.100Z,33.00
2022-08-11T12:52:06.815Z,32.83
2022-08-11T12:57:36.635Z,32.70
2022-08-11T13:03:01.079Z,33.31
2022-08-11T13:08:07.389Z,33.33
2022-08-11T13:13:54.496Z,33.14
2022-08-11T13:18:37.549Z,32.57
2022-08-11T13:24:01.856Z,32.66
2022-08-11T13:29:06.688Z,32.39
2022-08-11T13:34:12.513Z,32.17
2022-08-11T13:39:17.120Z,32.65
2022-08-11T13:44:25.509Z,32.95
2022-08-11T13:49:36.417Z,33.13
2022-08-11T13:54:45.583Z,33.32
2022-08-11T13:59:55.374Z,33.17
2022-08-11T14:05:07.463Z,33.48
2022-08-11T14:10:15.011Z,33.45
2022-08-11T14:15:41.001Z,33.97
2022-08-11T14:21:06.119Z,33.48
2022-08-11T14:26:23.973Z,32.47
2022-08-11T14:31:30.602Z,32.47
2022-08-11T14:36:39.913Z,32.96
2022-08-11T14:42:10.831Z,33.23
2022-08-11T14:47:23.284Z,33.86
2022-08-11T14:52:36.738Z,33.29
2022-08-11T14:57:55.272Z,33.55
2022-08-11T15:03:14.133Z,33.76
2022-08-11T15:08:20.469Z,34.49
2022-08-11T15:13:23.979Z,34.19
2022-08-11T15:18:27.683Z,34.19
2022-08-11T15:23:50.673Z,33.92
2022-08-11T15:29:13.135Z,34.05
2022-08-11T15:34:37.945Z,34.05
2022-08-11T15:40:31.770Z,34.59
2022-08-11T15:45:52.328Z,34.58
2022-08-11T15:51:03.796Z,34.71
2022-08-11T15:56:08.667Z,34.51
2022-08-11T16:01:34.771Z,34.98
2022-08-11T16:07:01.322Z,35.03
2022-08-11T16:12:08.647Z,35.40
2022-08-11T16:17:15.344Z,35.70
2022-08-11T16:22:30.796Z,35.45
2022-08-11T16:27:39.077Z,36.05
2022-08-11T16:32:46.327Z,36.22
2022-08-11T16:38:10.947Z,36.29
2022-08-11T16:43:36.612Z,36.64
2022-08-11T16:48:43.103Z,36.91
2022-08-11T16:54:04.493Z,36.73
2022-08-11T16:59:17.601Z,36.75
2022-08-11T17:04:56.071Z,37.22
2022-08-11T17:10:50.266Z,37.17
2022-08-11T17:16:07.255Z,38.06
2022-08-11T17:21:30.072Z,38.35
2022-08-11T17:26:57.548Z,38.73
2022-08-11T17:32:22.167Z,38.69
2022-08-11T17:37:27.446Z,40.26
2022-08-11T17:42:52.040Z,41.69
2022-08-11T17:48:15.609Z,42.84
2022-08-11T17:53:38.479Z,43.46
2022-08-11T17:59:01.454Z,44.99
2022-08-11T18:04:11.277Z,45.06
2022-08-11T18:09:37.256Z,45.99
2022-08-11T18:15:08.317Z,46.82
2022-08-11T18:20:30.474Z,47.26
2022-08-11T18:25:59.891Z,48.09
2022-08-11T18:31:23.891Z,48.51
2022-08-11T18:36:53.210Z,49.37
2022-08-11T18:42:28.930Z,49.46
2022-08-11T18:47:53.431Z,50.20
2022-08-11T18:53:22.264Z,51.00
2022-08-11T18:58:51.108Z,53.94
2022-08-11T19:04:17.301Z,57.19
2022-08-11T19:09:42.169Z,56.04
2022-08-11T19:15:08.436Z,58.49
2022-08-11T19:20:34.691Z,58.72
2022-08-11T19:26:03.890Z,59.56
2022-08-11T19:31:30.301Z,60.13
2022-08-11T19:36:59.254Z,60.39
2022-08-11T19:42:28.810Z,61.77
2022-08-11T19:48:08.203Z,61.90
2022-08-11T19:53:46.372Z,62.18
2022-08-11T19:59:14.859Z,62.50
2022-08-11T20:04:38.054Z,62.68
2022-08-11T20:10:05.989Z,63.34
2022-08-11T20:15:31.151Z,64.12
2022-08-11T20:20:53.822Z,65.08
2022-08-11T20:26:30.635Z,65.26
2022-08-11T20:31:53.683Z,66.54
2022-08-11T20:37:17.375Z,66.15
2022-08-11T20:42:40.560Z,66.22
2022-08-11T20:48:04.349Z,66.98
2022-08-11T20:53:29.875Z,66.36
2022-08-11T21:04:35.279Z,67.82
2022-08-11T21:10:09.470Z,69.01
2022-08-11T21:15:47.578Z,69.18
2022-08-11T21:21:20.638Z,69.09
2022-08-11T21:26:46.012Z,70.54
2022-08-11T21:32:09.249Z,71.34
2022-08-11T21:37:31.802Z,71.46
2022-08-11T21:42:59.897Z,71.96
2022-08-11T21:48:25.735Z,72.79
2022-08-11T21:53:49.216Z,73.25
2022-08-11T21:59:12.600Z,72.38
2022-08-11T22:04:37.926Z,73.51
2022-08-11T22:10:00.288Z,74.53
2022-08-11T22:15:43.021Z,74.43
2022-08-11T22:21:05.889Z,73.84
2022-08-11T22:26:30.088Z,73.71
2022-08-11T22:31:54.600Z,73.86
2022-08-11T22:37:27.358Z,74.61
2022-08-11T22:42:53.545Z,74.91
2022-08-11T22:48:17.540Z,75.16
2022-08-11T22:53:58.079Z,75.64
2022-08-11T22:59:21.300Z,75.98
2022-08-11T23:04:44.068Z,77.07
2022-08-11T23:10:06.632Z,78.56
2022-08-11T23:15:29.399Z,78.52
2022-08-11T23:20:53.990Z,78.50
2022-08-11T23:26:19.127Z,78.13
2022-08-11T23:31:50.581Z,78.45
2022-08-11T23:37:14.284Z,78.99
2022-08-11T23:42:36.544Z,79.28
2022-08-11T23:48:00.643Z,79.42
2022-08-11T23:53:23.303Z,79.78
2022-08-11T23:58:47.196Z,81.13
